createdAt,value
2019-01-31T00:00:30.299Z,8.01
2019-01-31T00:03:09.353Z,7.62
2019-01-31T00:06:07.476Z,7.45
2019-01-31T00:09:04.121Z,7.28
2019-01-31T00:11:58.464Z,7.09
2019-01-31T00:14:50.557Z,7.21
2019-01-31T00:17:38.363Z,7.13
2019-01-31T00:20:17.016Z,7.25
2019-01-31T00:23:04.891Z,7.81
2019-01-31T00:25:43.533Z,7.85
2019-01-31T00:28:19.291Z,8.04
2019-01-31T00:31:10.520Z,7.74
2019-01-31T00:33:58.351Z,7.88
2019-01-31T00:36:28.255Z,7.65
2019-01-31T00:39:14.884Z,7.46
2019-01-31T00:41:47.458Z,7.77
2019-01-31T00:44:37.874Z,7.68
2019-01-31T00:47:29.179Z,7.93
2019-01-31T00:50:01.871Z,8.30
2019-01-31T00:52:34.411Z,8.59
2019-01-31T00:55:06.902Z,8.79
2019-01-31T00:57:36.711Z,8.90
2019-01-31T01:00:06.568Z,8.76
2019-01-31T01:02:39.373Z,8.83
2019-01-31T01:05:25.955Z,8.41
2019-01-31T01:08:05.650Z,8.47
2019-01-31T01:11:01.185Z,8.58
2019-01-31T01:13:33.790Z,8.50
2019-01-31T01:16:06.338Z,8.64
2019-01-31T01:18:45.194Z,8.60
2019-01-31T01:21:20.782Z,8.75
2019-01-31T01:23:56.827Z,8.66
2019-01-31T01:26:29.494Z,8.74
2019-01-31T01:28:59.290Z,8.24
2019-01-31T01:31:32.156Z,8.14
2019-01-31T01:34:07.828Z,8.38
2019-01-31T01:36:42.953Z,8.55
2019-01-31T01:39:19.394Z,8.56
2019-01-31T01:41:44.596Z,8.66
2019-01-31T01:44:17.395Z,8.63
2019-01-31T01:46:49.973Z,8.63
2019-01-31T01:49:25.542Z,8.38
2019-01-31T01:51:55.304Z,7.64
2019-01-31T01:54:34.047Z,7.69
2019-01-31T01:57:21.912Z,8.07
2019-01-31T02:00:08.212Z,8.38
2019-01-31T02:02:37.971Z,8.54
2019-01-31T02:05:27.491Z,8.66
2019-01-31T02:08:03.146Z,8.70
2019-01-31T02:10:42.012Z,8.68
2019-01-31T02:13:29.644Z,8.11
2019-01-31T02:16:15.968Z,7.88
2019-01-31T02:18:51.680Z,7.69
2019-01-31T02:21:30.697Z,7.54
2019-01-31T02:24:15.487Z,7.35
2019-01-31T02:27:06.753Z,7.49
2019-01-31T02:29:42.143Z,7.37
2019-01-31T02:32:31.806Z,7.48
2019-01-31T02:35:35.265Z,7.84
2019-01-31T02:38:07.923Z,8.14
2019-01-31T02:40:49.746Z,8.11
2019-01-31T02:43:40.671Z,8.26
2019-01-31T02:46:13.409Z,8.32
2019-01-31T02:48:55.496Z,8.24
2019-01-31T02:51:34.435Z,8.19
2019-01-31T02:54:12.960Z,7.79
2019-01-31T02:56:42.724Z,7.94
2019-01-31T02:59:14.069Z,7.78
2019-01-31T03:02:02.095Z,8.04
2019-01-31T03:04:31.851Z,8.14
2019-01-31T03:07:04.347Z,8.39
2019-01-31T03:09:54.669Z,8.69
2019-01-31T03:12:18.972Z,8.92
2019-01-31T03:14:48.324Z,8.91
2019-01-31T03:17:21.103Z,8.88
2019-01-31T03:20:09.147Z,8.52
2019-01-31T03:22:41.646Z,8.41
2019-01-31T03:25:32.681Z,8.28
2019-01-31T03:28:05.703Z,8.28
2019-01-31T03:30:44.741Z,8.42
2019-01-31T03:33:23.536Z,8.58
2019-01-31T03:36:08.408Z,8.24
2019-01-31T03:38:40.911Z,8.61
2019-01-31T03:41:10.778Z,8.53
2019-01-31T03:43:52.886Z,8.63
2019-01-31T03:46:43.823Z,8.75
2019-01-31T03:49:13.613Z,8.75
2019-01-31T03:51:46.354Z,8.79
2019-01-31T03:54:34.540Z,8.52
2019-01-31T03:57:19.319Z,8.39
2019-01-31T03:59:48.200Z,8.61
2019-01-31T04:02:29.838Z,8.38
2019-01-31T04:05:02.686Z,8.19
2019-01-31T04:07:28.841Z,8.30
2019-01-31T04:09:54.987Z,8.59
2019-01-31T04:12:22.086Z,8.70
2019-01-31T04:14:48.300Z,8.76
2019-01-31T04:17:14.497Z,8.82
2019-01-31T04:19:40.684Z,9.04
2019-01-31T04:22:06.963Z,9.04
2019-01-31T04:24:33.614Z,8.71
2019-01-31T04:26:59.793Z,8.30
2019-01-31T04:29:25.944Z,8.37
2019-01-31T04:31:52.096Z,8.50
2019-01-31T04:34:18.375Z,8.61
2019-01-31T04:36:44.533Z,8.84
2019-01-31T04:39:10.778Z,8.95
2019-01-31T04:41:36.966Z,9.03
2019-01-31T04:44:03.617Z,9.05
2019-01-31T04:46:29.876Z,9.09
2019-01-31T04:48:56.062Z,9.06
2019-01-31T04:51:22.325Z,9.06
2019-01-31T04:53:48.681Z,9.27
2019-01-31T04:56:14.962Z,9.32
2019-01-31T04:58:41.121Z,9.19
2019-01-31T05:01:07.304Z,8.83
2019-01-31T05:03:33.471Z,8.97
2019-01-31T05:05:59.647Z,8.90
2019-01-31T05:08:25.805Z,8.93
2019-01-31T05:10:51.986Z,8.71
2019-01-31T05:13:18.301Z,8.63
2019-01-31T05:15:44.454Z,8.85
2019-01-31T05:18:10.642Z,8.95
2019-01-31T05:20:36.898Z,8.94
2019-01-31T05:23:03.046Z,9.15
2019-01-31T05:25:29.241Z,9.23
2019-01-31T05:27:55.389Z,9.05
2019-01-31T05:30:21.546Z,8.98
2019-01-31T05:32:47.734Z,9.24
2019-01-31T05:35:13.883Z,9.25
2019-01-31T05:37:40.043Z,9.32
2019-01-31T05:40:09.439Z,9.17
2019-01-31T05:42:35.588Z,9.03
2019-01-31T05:45:01.842Z,9.11
2019-01-31T05:47:28.028Z,9.03
2019-01-31T05:49:54.181Z,9.31
2019-01-31T05:52:20.348Z,9.40
2019-01-31T05:54:46.527Z,9.37
2019-01-31T05:57:12.696Z,9.46
2019-01-31T05:59:38.885Z,9.43
2019-01-31T06:02:05.259Z,9.39
2019-01-31T06:04:31.671Z,9.52
2019-01-31T06:06:57.838Z,9.33
2019-01-31T06:09:24.017Z,9.49
2019-01-31T06:11:50.183Z,8.99
2019-01-31T06:14:16.396Z,8.88
2019-01-31T06:16:42.618Z,8.53
2019-01-31T06:19:08.771Z,8.58
2019-01-31T06:21:34.923Z,8.40
2019-01-31T06:24:01.225Z,8.87
2019-01-31T06:26:27.499Z,9.15
2019-01-31T06:28:53.655Z,9.21
2019-01-31T06:31:19.945Z,9.32
2019-01-31T06:33:46.106Z,9.05
2019-01-31T06:36:12.374Z,9.32
2019-01-31T06:38:38.560Z,9.73
2019-01-31T06:41:04.728Z,9.69
2019-01-31T06:43:30.987Z,9.51
2019-01-31T06:45:57.269Z,9.59
2019-01-31T06:48:23.423Z,9.46
2019-01-31T06:50:49.585Z,9.43
2019-01-31T06:53:15.774Z,9.46
2019-01-31T06:55:41.958Z,9.63
2019-01-31T06:58:08.118Z,9.75
2019-01-31T07:00:34.322Z,9.81
2019-01-31T07:03:00.478Z,9.76
2019-01-31T07:05:26.639Z,9.30
2019-01-31T07:07:52.830Z,9.10
2019-01-31T07:10:21.582Z,9.69
2019-01-31T07:12:47.745Z,10.25
2019-01-31T07:15:14.929Z,10.06
2019-01-31T07:17:41.082Z,10.22
2019-01-31T07:20:15.485Z,10.31
2019-01-31T07:22:41.801Z,10.64
2019-01-31T07:25:11.775Z,11.05
2019-01-31T07:27:37.929Z,11.20
2019-01-31T07:30:10.416Z,11.43
2019-01-31T07:32:36.585Z,10.79
2019-01-31T07:35:05.932Z,10.83
2019-01-31T07:37:32.138Z,10.63
2019-01-31T07:39:58.299Z,10.51
2019-01-31T07:42:24.559Z,10.46
2019-01-31T07:44:50.885Z,10.87
2019-01-31T07:47:17.023Z,11.07
2019-01-31T07:49:43.186Z,11.27
2019-01-31T07:52:09.400Z,10.59
2019-01-31T07:54:35.557Z,10.54
2019-01-31T07:57:01.709Z,10.51
2019-01-31T07:59:27.986Z,10.86
2019-01-31T08:01:54.139Z,11.08
2019-01-31T08:04:20.414Z,11.24
2019-01-31T08:06:46.611Z,11.06
2019-01-31T08:09:12.771Z,11.69
2019-01-31T08:11:38.922Z,12.00
2019-01-31T08:14:05.703Z,12.04
2019-01-31T08:16:31.910Z,11.30
2019-01-31T08:18:58.062Z,10.86
2019-01-31T08:21:24.243Z,11.61
2019-01-31T08:23:50.510Z,11.50
2019-01-31T08:26:16.670Z,11.88
2019-01-31T08:28:42.874Z,12.83
2019-01-31T08:31:09.225Z,13.49
2019-01-31T08:33:35.385Z,13.17
2019-01-31T08:36:01.679Z,13.31
2019-01-31T08:38:27.836Z,12.83
2019-01-31T08:40:54.000Z,12.40
2019-01-31T08:43:20.664Z,11.75
2019-01-31T08:45:47.058Z,12.29
2019-01-31T08:48:13.236Z,12.64
2019-01-31T08:50:39.631Z,13.25
2019-01-31T08:53:05.904Z,13.42
2019-01-31T08:55:32.169Z,13.54
2019-01-31T08:57:58.359Z,13.50
2019-01-31T09:00:30.751Z,13.27
2019-01-31T09:02:57.231Z,13.48
2019-01-31T09:05:23.425Z,13.27
2019-01-31T09:07:49.580Z,13.13
2019-01-31T09:10:28.012Z,13.33
2019-01-31T09:12:54.730Z,13.62
2019-01-31T09:15:22.385Z,14.01
2019-01-31T09:17:49.630Z,13.90
2019-01-31T09:20:28.390Z,13.55
2019-01-31T09:23:04.219Z,13.74
2019-01-31T09:25:54.205Z,13.92
2019-01-31T09:28:35.884Z,13.17
2019-01-31T09:31:27.109Z,13.33
2019-01-31T09:34:03.001Z,13.53
2019-01-31T09:36:55.408Z,13.32
2019-01-31T09:39:46.546Z,13.53
2019-01-31T09:42:26.611Z,14.68
2019-01-31T09:45:18.061Z,14.53
2019-01-31T09:47:59.595Z,14.37
2019-01-31T09:50:52.416Z,14.65
2019-01-31T09:53:37.480Z,14.97
2019-01-31T09:56:13.118Z,15.19
2019-01-31T09:59:01.027Z,15.80
2019-01-31T10:01:55.552Z,16.19
2019-01-31T10:04:31.197Z,15.85
2019-01-31T10:07:03.159Z,15.31
2019-01-31T10:09:41.766Z,14.62
2019-01-31T10:12:20.248Z,13.89
2019-01-31T10:14:58.778Z,13.57
2019-01-31T10:17:31.542Z,14.59
2019-01-31T10:20:22.364Z,15.33
2019-01-31T10:22:58.124Z,16.20
2019-01-31T10:25:40.332Z,16.14
2019-01-31T10:28:40.045Z,15.70
2019-01-31T10:31:28.479Z,15.53
2019-01-31T10:34:10.138Z,16.00
2019-01-31T10:36:39.900Z,16.43
2019-01-31T10:39:18.317Z,16.07
2019-01-31T10:42:23.749Z,16.91
2019-01-31T10:45:08.618Z,17.40
2019-01-31T10:47:53.003Z,18.08
2019-01-31T10:50:45.948Z,18.34
2019-01-31T10:53:18.478Z,17.60
2019-01-31T10:56:11.212Z,17.56
2019-01-31T10:58:43.847Z,15.97
2019-01-31T11:01:28.726Z,14.68
2019-01-31T11:04:10.102Z,15.47
2019-01-31T11:07:00.051Z,15.07
2019-01-31T11:09:45.257Z,15.18
2019-01-31T11:12:17.910Z,14.99
2019-01-31T11:14:47.839Z,15.11
2019-01-31T11:17:20.831Z,15.35
2019-01-31T11:20:02.306Z,15.74
2019-01-31T11:22:41.318Z,16.61
2019-01-31T11:25:26.293Z,17.64
2019-01-31T11:28:08.249Z,18.18
2019-01-31T11:30:56.150Z,18.33
2019-01-31T11:33:35.129Z,18.51
2019-01-31T11:36:07.926Z,18.53
2019-01-31T11:38:40.953Z,17.20
2019-01-31T11:41:27.659Z,15.88
2019-01-31T11:44:15.490Z,15.88
2019-01-31T11:46:45.378Z,15.19
2019-01-31T11:49:30.418Z,15.87
2019-01-31T11:52:00.213Z,15.58
2019-01-31T11:54:35.790Z,16.16
2019-01-31T11:57:22.481Z,16.11
2019-01-31T11:59:48.675Z,16.63
2019-01-31T12:02:15.144Z,17.28
2019-01-31T12:04:41.407Z,17.64
2019-01-31T12:07:07.605Z,16.84
2019-01-31T12:09:33.810Z,16.32
2019-01-31T12:12:00.076Z,16.49
2019-01-31T12:14:26.311Z,16.71
2019-01-31T12:16:52.628Z,16.18
2019-01-31T12:19:19.212Z,15.78
2019-01-31T12:21:45.745Z,16.40
2019-01-31T12:24:16.456Z,17.53
2019-01-31T12:26:40.679Z,17.41
2019-01-31T12:29:06.886Z,17.46
2019-01-31T12:31:33.053Z,17.33
2019-01-31T12:33:59.215Z,16.51
2019-01-31T12:36:25.521Z,16.07
2019-01-31T12:38:54.845Z,15.83
2019-01-31T12:41:20.357Z,16.05
2019-01-31T12:43:46.772Z,15.80
2019-01-31T12:46:13.041Z,16.27
2019-01-31T12:48:39.231Z,16.17
2019-01-31T12:51:05.530Z,16.58
2019-01-31T12:53:31.704Z,15.81
2019-01-31T12:55:58.007Z,15.96
2019-01-31T12:58:33.312Z,15.92
2019-01-31T13:00:52.463Z,16.38
2019-01-31T13:03:18.633Z,16.25
2019-01-31T13:05:44.927Z,16.19
2019-01-31T13:08:11.088Z,15.54
2019-01-31T13:10:37.256Z,15.71
2019-01-31T13:13:04.067Z,15.68
2019-01-31T13:15:30.237Z,15.78
2019-01-31T13:17:56.504Z,14.72
2019-01-31T13:20:23.597Z,14.39
2019-01-31T13:22:52.868Z,14.56
2019-01-31T13:25:20.511Z,14.70
2019-01-31T13:27:46.975Z,14.85
2019-01-31T13:30:18.525Z,15.40
2019-01-31T13:32:44.778Z,15.43
2019-01-31T13:35:12.875Z,15.28
2019-01-31T13:37:39.142Z,14.72
2019-01-31T13:40:23.660Z,14.91
2019-01-31T13:42:50.624Z,15.09
2019-01-31T13:45:20.088Z,15.08
2019-01-31T13:47:46.286Z,15.52
2019-01-31T13:50:14.753Z,15.61
2019-01-31T13:52:41.034Z,15.74
2019-01-31T13:55:10.942Z,16.02
2019-01-31T13:57:37.109Z,16.23
2019-01-31T14:00:06.993Z,15.87
2019-01-31T14:02:33.194Z,15.63
2019-01-31T14:04:59.361Z,15.19
2019-01-31T14:07:27.589Z,15.17
2019-01-31T14:09:53.637Z,15.03
2019-01-31T14:12:19.811Z,14.96
2019-01-31T14:14:45.983Z,14.47
2019-01-31T14:17:12.183Z,14.88
2019-01-31T14:19:38.343Z,14.83
2019-01-31T14:22:04.620Z,15.11
2019-01-31T14:24:30.809Z,15.18
2019-01-31T14:26:57.029Z,15.31
2019-01-31T14:29:23.181Z,15.27
2019-01-31T14:31:49.374Z,15.14
2019-01-31T14:34:15.532Z,15.14
2019-01-31T14:36:41.690Z,15.19
2019-01-31T14:39:08.190Z,15.11
2019-01-31T14:41:34.452Z,14.61
2019-01-31T14:44:00.617Z,13.99
2019-01-31T14:46:26.943Z,13.70
2019-01-31T14:48:53.107Z,13.99
2019-01-31T14:51:19.271Z,13.98
2019-01-31T14:53:45.476Z,14.17
2019-01-31T14:56:11.642Z,14.22
2019-01-31T14:58:37.801Z,14.16
2019-01-31T15:01:04.006Z,13.91
2019-01-31T15:03:30.183Z,13.72
2019-01-31T15:05:56.451Z,13.47
2019-01-31T15:08:23.994Z,13.75
2019-01-31T15:10:50.164Z,13.62
2019-01-31T15:13:16.331Z,13.37
2019-01-31T15:15:42.628Z,12.91
2019-01-31T15:18:08.792Z,13.21
2019-01-31T15:20:38.455Z,13.23
2019-01-31T15:23:05.160Z,13.48
2019-01-31T15:25:31.472Z,13.35
2019-01-31T15:27:57.829Z,13.29
2019-01-31T15:30:27.361Z,13.42
2019-01-31T15:32:53.614Z,13.25
2019-01-31T15:35:19.879Z,13.21
2019-01-31T15:37:46.066Z,12.95
2019-01-31T15:40:15.831Z,13.10
2019-01-31T15:42:42.090Z,12.77
2019-01-31T15:45:08.484Z,12.84
2019-01-31T15:47:34.646Z,12.58
2019-01-31T15:50:00.807Z,12.63
2019-01-31T15:52:26.997Z,12.70
2019-01-31T15:54:53.254Z,13.09
2019-01-31T15:57:19.514Z,12.44
2019-01-31T15:59:45.705Z,12.33
2019-01-31T16:02:11.962Z,12.60
2019-01-31T16:04:38.231Z,12.83
2019-01-31T16:07:04.530Z,12.67
2019-01-31T16:09:30.698Z,12.42
2019-01-31T16:11:59.640Z,12.52
2019-01-31T16:14:25.056Z,12.67
2019-01-31T16:16:51.244Z,12.69
2019-01-31T16:19:17.395Z,12.71
2019-01-31T16:21:44.420Z,12.59
2019-01-31T16:24:10.582Z,12.52
2019-01-31T16:26:36.734Z,12.49
2019-01-31T16:29:03.556Z,12.48
2019-01-31T16:31:29.711Z,12.29
2019-01-31T16:33:55.873Z,12.42
2019-01-31T16:36:22.043Z,12.43
2019-01-31T16:38:48.215Z,12.26
2019-01-31T16:41:17.161Z,12.26
2019-01-31T16:43:44.496Z,12.23
2019-01-31T16:46:10.653Z,11.99
2019-01-31T16:48:36.819Z,12.03
2019-01-31T16:51:03.006Z,12.08
2019-01-31T16:53:29.276Z,12.31
2019-01-31T16:55:55.450Z,12.34
2019-01-31T16:58:21.742Z,12.13
2019-01-31T17:00:47.991Z,12.09
2019-01-31T17:03:14.244Z,11.98
2019-01-31T17:05:42.887Z,11.84
2019-01-31T17:08:09.082Z,11.99
2019-01-31T17:10:35.205Z,11.81
2019-01-31T17:13:01.505Z,11.85
2019-01-31T17:15:27.659Z,11.84
2019-01-31T17:17:53.938Z,12.01
2019-01-31T17:20:26.179Z,12.19
2019-01-31T17:22:52.443Z,12.19
2019-01-31T17:25:19.843Z,12.27
2019-01-31T17:27:46.050Z,12.37
2019-01-31T17:30:23.826Z,12.49
2019-01-31T17:32:50.424Z,12.04
2019-01-31T17:35:16.586Z,12.08
2019-01-31T17:37:42.878Z,11.72
2019-01-31T17:40:12.811Z,11.48
2019-01-31T17:42:39.079Z,11.48
2019-01-31T17:45:08.835Z,11.53
2019-01-31T17:47:35.031Z,11.51
2019-01-31T17:50:01.252Z,11.52
2019-01-31T17:52:27.466Z,11.34
2019-01-31T17:54:55.952Z,11.09
2019-01-31T17:57:21.832Z,11.30
2019-01-31T17:59:48.101Z,11.25
2019-01-31T18:02:14.406Z,10.67
2019-01-31T18:04:40.656Z,10.71
2019-01-31T18:07:06.922Z,10.97
2019-01-31T18:09:33.115Z,10.67
2019-01-31T18:11:59.275Z,10.25
2019-01-31T18:14:25.529Z,10.49
2019-01-31T18:16:51.820Z,10.32
2019-01-31T18:19:17.972Z,10.46
2019-01-31T18:21:44.127Z,10.62
2019-01-31T18:24:10.327Z,10.24
2019-01-31T18:26:36.575Z,10.39
2019-01-31T18:29:02.923Z,10.49
2019-01-31T18:31:29.215Z,10.35
2019-01-31T18:33:55.379Z,9.91
2019-01-31T18:36:21.543Z,10.20
2019-01-31T18:38:47.739Z,10.30
2019-01-31T18:41:13.891Z,10.23
2019-01-31T18:43:40.041Z,10.32
2019-01-31T18:46:06.240Z,9.94
2019-01-31T18:48:32.432Z,10.28
2019-01-31T18:50:58.697Z,10.22
2019-01-31T18:53:24.992Z,9.98
2019-01-31T18:55:51.246Z,9.69
2019-01-31T18:58:17.403Z,9.71
2019-01-31T19:00:45.304Z,9.54
2019-01-31T19:03:11.566Z,9.45
2019-01-31T19:05:37.861Z,9.49
2019-01-31T19:08:07.158Z,9.44
2019-01-31T19:10:42.684Z,9.37
2019-01-31T19:13:00.439Z,9.50
2019-01-31T19:15:26.732Z,9.50
2019-01-31T19:17:52.998Z,9.52
2019-01-31T19:20:24.396Z,9.80
2019-01-31T19:22:51.604Z,9.53
2019-01-31T19:25:17.989Z,9.10
2019-01-31T19:27:44.252Z,9.25
2019-01-31T19:30:28.668Z,9.49
2019-01-31T19:32:55.113Z,9.16
2019-01-31T19:35:21.395Z,9.05
2019-01-31T19:37:47.615Z,9.19
2019-01-31T19:40:22.185Z,9.20
2019-01-31T19:42:48.493Z,9.11
2019-01-31T19:45:21.254Z,9.21
2019-01-31T19:47:47.425Z,9.25
2019-01-31T19:50:13.976Z,9.33
2019-01-31T19:52:40.158Z,9.13
2019-01-31T19:55:06.434Z,9.22
2019-01-31T19:57:32.611Z,9.05
2019-01-31T19:59:58.807Z,8.98
2019-01-31T20:02:25.066Z,9.14
2019-01-31T20:04:51.222Z,9.31
2019-01-31T20:07:17.510Z,9.04
2019-01-31T20:09:45.080Z,8.85
2019-01-31T20:12:11.329Z,8.82
2019-01-31T20:14:37.521Z,8.96
2019-01-31T20:17:08.394Z,8.98
2019-01-31T20:19:33.780Z,8.98
2019-01-31T20:21:59.959Z,9.04
2019-01-31T20:24:26.113Z,8.80
2019-01-31T20:26:52.376Z,9.19
2019-01-31T20:29:18.568Z,9.20
2019-01-31T20:31:44.725Z,8.93
2019-01-31T20:34:10.887Z,9.29
2019-01-31T20:36:37.186Z,9.17
2019-01-31T20:39:06.045Z,9.42
2019-01-31T20:41:32.309Z,8.91
2019-01-31T20:43:58.532Z,9.34
2019-01-31T20:46:24.792Z,8.91
2019-01-31T20:48:51.055Z,8.83
2019-01-31T20:51:17.348Z,9.39
2019-01-31T20:53:43.502Z,8.89
2019-01-31T20:56:09.668Z,8.98
2019-01-31T20:58:35.959Z,8.56
2019-01-31T21:01:02.216Z,8.82
2019-01-31T21:03:28.374Z,8.35
2019-01-31T21:05:54.552Z,9.12
2019-01-31T21:08:20.867Z,8.50
2019-01-31T21:10:47.186Z,8.38
2019-01-31T21:13:13.376Z,8.52
2019-01-31T21:15:39.636Z,8.45
2019-01-31T21:18:06.300Z,8.21
2019-01-31T21:20:32.497Z,8.72
2019-01-31T21:22:58.639Z,8.33
2019-01-31T21:25:24.796Z,8.35
2019-01-31T21:27:52.394Z,8.09
2019-01-31T21:30:33.706Z,7.94
2019-01-31T21:32:59.999Z,8.04
2019-01-31T21:35:27.469Z,8.36
2019-01-31T21:37:53.619Z,8.89
2019-01-31T21:40:21.220Z,8.69
2019-01-31T21:42:47.676Z,8.65
2019-01-31T21:45:18.734Z,8.34
2019-01-31T21:47:44.935Z,7.92
2019-01-31T21:50:14.694Z,8.21
2019-01-31T21:52:40.958Z,7.96
2019-01-31T21:55:08.856Z,7.79
2019-01-31T21:57:35.115Z,8.01
2019-01-31T22:00:01.678Z,8.37
2019-01-31T22:02:27.882Z,8.52
2019-01-31T22:04:54.037Z,8.98
2019-01-31T22:07:20.293Z,8.80
2019-01-31T22:09:46.476Z,8.74
2019-01-31T22:12:12.632Z,8.90
2019-01-31T22:14:38.889Z,8.87
2019-01-31T22:17:14.375Z,8.95
2019-01-31T22:19:33.139Z,9.02
2019-01-31T22:21:59.298Z,8.79
2019-01-31T22:24:25.504Z,9.13
2019-01-31T22:26:51.663Z,9.36
2019-01-31T22:29:17.826Z,9.21
2019-01-31T22:31:44.027Z,9.26
2019-01-31T22:34:10.285Z,9.08
2019-01-31T22:36:36.588Z,8.86
2019-01-31T22:39:06.282Z,8.65
2019-01-31T22:41:32.435Z,8.87
2019-01-31T22:43:58.727Z,8.80
2019-01-31T22:46:24.903Z,8.80
2019-01-31T22:48:51.071Z,8.83
2019-01-31T22:51:17.224Z,9.13
2019-01-31T22:53:43.538Z,9.41
2019-01-31T22:56:09.700Z,9.78
2019-01-31T22:58:35.957Z,9.83
2019-01-31T23:01:07.689Z,9.50
2019-01-31T23:03:34.364Z,9.59
2019-01-31T23:06:00.664Z,9.74
2019-01-31T23:08:26.965Z,9.67
2019-01-31T23:10:53.238Z,9.60
2019-01-31T23:13:19.507Z,9.11
2019-01-31T23:15:45.816Z,9.08
2019-01-31T23:18:11.992Z,9.23
2019-01-31T23:20:38.249Z,9.40
2019-01-31T23:23:04.445Z,9.18
2019-01-31T23:25:39.643Z,9.14
2019-01-31T23:27:58.668Z,8.94
2019-01-31T23:30:25.023Z,9.20
2019-01-31T23:32:51.194Z,9.50
2019-01-31T23:35:17.464Z,9.64
2019-01-31T23:37:43.731Z,9.58
2019-01-31T23:40:11.790Z,9.62
2019-01-31T23:42:37.958Z,9.56
2019-01-31T23:45:07.879Z,9.50
2019-01-31T23:47:34.141Z,9.81
2019-01-31T23:50:00.412Z,10.01
2019-01-31T23:52:26.611Z,9.88
2019-01-31T23:54:52.776Z,9.72
2019-01-31T23:57:19.054Z,9.78
2019-01-31T23:59:45.240Z,9.78
